sensor_id;sensor_type;location;lat;lon;timestamp;pressure;altitude;pressure_sealevel;temperature
70668;BMP280;58242;51.250;-1.118;2022-08-14T00:01:06;99711.81;;;29.10
70668;BMP280;58242;51.250;-1.118;2022-08-14T00:03:32;99707.69;;;29.05
70668;BMP280;58242;51.250;-1.118;2022-08-14T00:05:59;99709.06;;;29.01
70668;BMP280;58242;51.250;-1.118;2022-08-14T00:08:25;99704.91;;;28.97
70668;BMP280;58242;51.250;-1.118;2022-08-14T00:10:51;99707.03;;;28.93
70668;BMP280;58242;51.250;-1.118;2022-08-14T00:13:21;99697.84;;;28.87
70668;BMP280;58242;51.250;-1.118;2022-08-14T00:15:49;99711.06;;;28.80
70668;BMP280;58242;51.250;-1.118;2022-08-14T00:18:18;99710.47;;;28.76
70668;BMP280;58242;51.250;-1.118;2022-08-14T00:20:43;99699.78;;;28.57
70668;BMP280;58242;51.250;-1.118;2022-08-14T00:23:11;99705.16;;;28.60
70668;BMP280;58242;51.250;-1.118;2022-08-14T00:25:37;99701.31;;;28.58
70668;BMP280;58242;51.250;-1.118;2022-08-14T00:28:04;99697.16;;;28.53
70668;BMP280;58242;51.250;-1.118;2022-08-14T00:30:31;99697.41;;;28.47
70668;BMP280;58242;51.250;-1.118;2022-08-14T00:32:57;99696.78;;;28.43
70668;BMP280;58242;51.250;-1.118;2022-08-14T00:35:22;99694.63;;;28.38
70668;BMP280;58242;51.250;-1.118;2022-08-14T00:37:48;99685.75;;;28.34
70668;BMP280;58242;51.250;-1.118;2022-08-14T00:40:17;99682.34;;;28.30
70668;BMP280;58242;51.250;-1.118;2022-08-14T00:42:43;99681.38;;;28.24
70668;BMP280;58242;51.250;-1.118;2022-08-14T00:45:11;99679.97;;;28.20
70668;BMP280;58242;51.250;-1.118;2022-08-14T00:47:37;99675.47;;;28.14
70668;BMP280;58242;51.250;-1.118;2022-08-14T00:50:05;99677.59;;;28.10
70668;BMP280;58242;51.250;-1.118;2022-08-14T00:52:32;99685.63;;;28.04
70668;BMP280;58242;51.250;-1.118;2022-08-14T00:54:58;99684.25;;;28.00
70668;BMP280;58242;51.250;-1.118;2022-08-14T00:57:26;99685.09;;;27.97
70668;BMP280;58242;51.250;-1.118;2022-08-14T00:59:52;99682.63;;;27.90
70668;BMP280;58242;51.250;-1.118;2022-08-14T01:02:19;99684.72;;;27.86
70668;BMP280;58242;51.250;-1.118;2022-08-14T01:04:51;99677.81;;;27.82
70668;BMP280;58242;51.250;-1.118;2022-08-14T01:07:18;99675.66;;;27.77
70668;BMP280;58242;51.250;-1.118;2022-08-14T01:09:49;99683.25;;;27.73
70668;BMP280;58242;51.250;-1.118;2022-08-14T01:12:16;99679.06;;;27.69
70668;BMP280;58242;51.250;-1.118;2022-08-14T01:14:42;99682.72;;;27.66
70668;BMP280;58242;51.250;-1.118;2022-08-14T01:17:07;99668.78;;;27.61
70668;BMP280;58242;51.250;-1.118;2022-08-14T01:19:33;99661.06;;;27.56
70668;BMP280;58242;51.250;-1.118;2022-08-14T01:22:17;99663.63;;;27.50
70668;BMP280;58242;51.250;-1.118;2022-08-14T01:24:43;99655.94;;;27.45
70668;BMP280;58242;51.250;-1.118;2022-08-14T01:27:17;99654.53;;;27.41
70668;BMP280;58242;51.250;-1.118;2022-08-14T01:29:45;99656.63;;;27.37
70668;BMP280;58242;51.250;-1.118;2022-08-14T01:32:10;99657.19;;;27.32
70668;BMP280;58242;51.250;-1.118;2022-08-14T01:34:36;99653.47;;;27.27
70668;BMP280;58242;51.250;-1.118;2022-08-14T01:37:01;99648.84;;;27.24
70668;BMP280;58242;51.250;-1.118;2022-08-14T01:39:27;99650.94;;;27.20
70668;BMP280;58242;51.250;-1.118;2022-08-14T01:41:52;99645.25;;;27.14
70668;BMP280;58242;51.250;-1.118;2022-08-14T01:44:23;99646.91;;;27.12
70668;BMP280;58242;51.250;-1.118;2022-08-14T01:46:50;99643.94;;;27.07
70668;BMP280;58242;51.250;-1.118;2022-08-14T01:49:19;99637.06;;;27.02
70668;BMP280;58242;51.250;-1.118;2022-08-14T01:51:45;99624.63;;;26.98
70668;BMP280;58242;51.250;-1.118;2022-08-14T01:54:13;99631.72;;;26.95
70668;BMP280;58242;51.250;-1.118;2022-08-14T01:56:40;99627.25;;;26.89
70668;BMP280;58242;51.250;-1.118;2022-08-14T02:01:39;99622.53;;;26.77
70668;BMP280;58242;51.250;-1.118;2022-08-14T02:04:04;99614.44;;;26.74
70668;BMP280;58242;51.250;-1.118;2022-08-14T02:06:30;99615.75;;;26.70
70668;BMP280;58242;51.250;-1.118;2022-08-14T02:08:55;99605.31;;;26.65
70668;BMP280;58242;51.250;-1.118;2022-08-14T02:11:23;99608.16;;;26.61
70668;BMP280;58242;51.250;-1.118;2022-08-14T02:13:57;99608.28;;;26.58
70668;BMP280;58242;51.250;-1.118;2022-08-14T02:16:28;99601.81;;;26.52
70668;BMP280;58242;51.250;-1.118;2022-08-14T02:18:58;99606.66;;;26.48
70668;BMP280;58242;51.250;-1.118;2022-08-14T02:21:24;99596.22;;;26.43
70668;BMP280;58242;51.250;-1.118;2022-08-14T02:23:52;99594.44;;;26.37
70668;BMP280;58242;51.250;-1.118;2022-08-14T02:26:25;99597.72;;;26.32
70668;BMP280;58242;51.250;-1.118;2022-08-14T02:28:54;99597.50;;;26.27
70668;BMP280;58242;51.250;-1.118;2022-08-14T02:31:20;99597.59;;;26.24
70668;BMP280;58242;51.250;-1.118;2022-08-14T02:33:46;99601.97;;;26.21
70668;BMP280;58242;51.250;-1.118;2022-08-14T02:36:13;99593.09;;;26.17
70668;BMP280;58242;51.250;-1.118;2022-08-14T02:38:38;99592.09;;;26.11
70668;BMP280;58242;51.250;-1.118;2022-08-14T02:41:08;99594.19;;;26.08
70668;BMP280;58242;51.250;-1.118;2022-08-14T02:43:34;99592.75;;;26.03
70668;BMP280;58242;51.250;-1.118;2022-08-14T02:45:59;99603.81;;;26.00
70668;BMP280;58242;51.250;-1.118;2022-08-14T02:48:25;99596.44;;;25.97
70668;BMP280;58242;51.250;-1.118;2022-08-14T02:51:04;99614.97;;;25.93
70668;BMP280;58242;51.250;-1.118;2022-08-14T02:53:31;99606.81;;;25.90
70668;BMP280;58242;51.250;-1.118;2022-08-14T02:55:58;99614.72;;;25.88
70668;BMP280;58242;51.250;-1.118;2022-08-14T02:58:24;99605.06;;;25.83
70668;BMP280;58242;51.250;-1.118;2022-08-14T03:00:49;99605.16;;;25.80
70668;BMP280;58242;51.250;-1.118;2022-08-14T03:03:16;99607.19;;;25.76
70668;BMP280;58242;51.250;-1.118;2022-08-14T03:05:41;99611.59;;;25.73
70668;BMP280;58242;51.250;-1.118;2022-08-14T03:08:10;99605.00;;;25.71
70668;BMP280;58242;51.250;-1.118;2022-08-14T03:10:36;99606.63;;;25.69
70668;BMP280;58242;51.250;-1.118;2022-08-14T03:13:02;99602.03;;;25.66
70668;BMP280;58242;51.250;-1.118;2022-08-14T03:15:31;99594.69;;;25.63
70668;BMP280;58242;51.250;-1.118;2022-08-14T03:18:00;99592.38;;;25.61
70668;BMP280;58242;51.250;-1.118;2022-08-14T03:20:26;99590.50;;;25.58
70668;BMP280;58242;51.250;-1.118;2022-08-14T03:22:53;99595.63;;;25.56
70668;BMP280;58242;51.250;-1.118;2022-08-14T03:25:20;99599.22;;;25.54
70668;BMP280;58242;51.250;-1.118;2022-08-14T03:27:46;99592.66;;;25.51
70668;BMP280;58242;51.250;-1.118;2022-08-14T03:30:11;99590.78;;;25.48
70668;BMP280;58242;51.250;-1.118;2022-08-14T03:32:37;99593.94;;;25.47
70668;BMP280;58242;51.250;-1.118;2022-08-14T03:35:03;99585.84;;;25.43
70668;BMP280;58242;51.250;-1.118;2022-08-14T03:37:28;99594.88;;;25.40
70668;BMP280;58242;51.250;-1.118;2022-08-14T03:39:54;99590.28;;;25.38
70668;BMP280;58242;51.250;-1.118;2022-08-14T03:42:19;99588.41;;;25.35
70668;BMP280;58242;51.250;-1.118;2022-08-14T03:44:48;99592.78;;;25.32
70668;BMP280;58242;51.250;-1.118;2022-08-14T03:47:13;99583.03;;;25.31
70668;BMP280;58242;51.250;-1.118;2022-08-14T03:49:39;99592.13;;;25.28
70668;BMP280;58242;51.250;-1.118;2022-08-14T03:52:05;99584.00;;;25.25
70668;BMP280;58242;51.250;-1.118;2022-08-14T03:54:30;99575.84;;;25.21
70668;BMP280;58242;51.250;-1.118;2022-08-14T03:56:59;99574.00;;;25.19
70668;BMP280;58242;51.250;-1.118;2022-08-14T03:59:25;99579.88;;;25.17
70668;BMP280;58242;51.250;-1.118;2022-08-14T04:01:50;99579.97;;;25.14
70668;BMP280;58242;51.250;-1.118;2022-08-14T04:04:17;99574.56;;;25.10
70668;BMP280;58242;51.250;-1.118;2022-08-14T04:06:42;99576.19;;;25.08
70668;BMP280;58242;51.250;-1.118;2022-08-14T04:09:08;99569.63;;;25.05
70668;BMP280;58242;51.250;-1.118;2022-08-14T04:11:34;99559.97;;;25.01
70668;BMP280;58242;51.250;-1.118;2022-08-14T04:14:01;99554.94;;;25.00
70668;BMP280;58242;51.250;-1.118;2022-08-14T04:16:27;99550.31;;;24.97
70668;BMP280;58242;51.250;-1.118;2022-08-14T04:18:54;99547.69;;;24.93
70668;BMP280;58242;51.250;-1.118;2022-08-14T04:21:22;99553.25;;;24.90
70668;BMP280;58242;51.250;-1.118;2022-08-14T04:23:49;99554.09;;;24.87
70668;BMP280;58242;51.250;-1.118;2022-08-14T04:26:15;99545.22;;;24.83
70668;BMP280;58242;51.250;-1.118;2022-08-14T04:28:43;99544.88;;;24.81
70668;BMP280;58242;51.250;-1.118;2022-08-14T04:31:08;99547.69;;;24.78
70668;BMP280;58242;51.250;-1.118;2022-08-14T04:33:34;99545.03;;;24.74
70668;BMP280;58242;51.250;-1.118;2022-08-14T04:36:00;99544.38;;;24.70
70668;BMP280;58242;51.250;-1.118;2022-08-14T04:38:25;99542.91;;;24.66
70668;BMP280;58242;51.250;-1.118;2022-08-14T04:41:26;99542.66;;;24.61
70668;BMP280;58242;51.250;-1.118;2022-08-14T04:44:10;99537.25;;;24.57
70668;BMP280;58242;51.250;-1.118;2022-08-14T04:46:35;99538.91;;;24.55
70668;BMP280;58242;51.250;-1.118;2022-08-14T04:49:03;99536.97;;;24.52
70668;BMP280;58242;51.250;-1.118;2022-08-14T04:51:28;99537.84;;;24.49
70668;BMP280;58242;51.250;-1.118;2022-08-14T04:53:54;99537.50;;;24.47
70668;BMP280;58242;51.250;-1.118;2022-08-14T04:56:24;99537.94;;;24.46
70668;BMP280;58242;51.250;-1.118;2022-08-14T04:58:53;99534.06;;;24.43
70668;BMP280;58242;51.250;-1.118;2022-08-14T05:01:23;99524.78;;;24.41
70668;BMP280;58242;51.250;-1.118;2022-08-14T05:03:49;99528.38;;;24.38
70668;BMP280;58242;51.250;-1.118;2022-08-14T05:06:15;99530.75;;;24.36
70668;BMP280;58242;51.250;-1.118;2022-08-14T05:08:40;99533.13;;;24.34
70668;BMP280;58242;51.250;-1.118;2022-08-14T05:11:07;99531.19;;;24.35
70668;BMP280;58242;51.250;-1.118;2022-08-14T05:13:34;99529.63;;;24.34
70668;BMP280;58242;51.250;-1.118;2022-08-14T05:16:01;99535.88;;;24.34
70668;BMP280;58242;51.250;-1.118;2022-08-14T05:18:35;99538.16;;;24.35
70668;BMP280;58242;51.250;-1.118;2022-08-14T05:21:04;99524.50;;;24.35
70668;BMP280;58242;51.250;-1.118;2022-08-14T05:23:34;99524.50;;;24.35
70668;BMP280;58242;51.250;-1.118;2022-08-14T05:26:01;99524.84;;;24.37
70668;BMP280;58242;51.250;-1.118;2022-08-14T05:28:39;99531.09;;;24.38
70668;BMP280;58242;51.250;-1.118;2022-08-14T05:31:06;99527.16;;;24.39
70668;BMP280;58242;51.250;-1.118;2022-08-14T05:33:33;99527.84;;;24.43
70668;BMP280;58242;51.250;-1.118;2022-08-14T05:36:01;99523.50;;;24.45
70668;BMP280;58242;51.250;-1.118;2022-08-14T05:38:29;99523.06;;;24.47
70668;BMP280;58242;51.250;-1.118;2022-08-14T05:41:05;99529.66;;;24.49
70668;BMP280;58242;51.250;-1.118;2022-08-14T05:43:30;99531.53;;;24.52
70668;BMP280;58242;51.250;-1.118;2022-08-14T05:45:57;99530.69;;;24.55
70668;BMP280;58242;51.250;-1.118;2022-08-14T05:48:24;99518.13;;;24.57
70668;BMP280;58242;51.250;-1.118;2022-08-14T05:50:50;99527.47;;;24.60
70668;BMP280;58242;51.250;-1.118;2022-08-14T05:53:16;99525.06;;;24.62
70668;BMP280;58242;51.250;-1.118;2022-08-14T05:55:42;99517.22;;;24.64
70668;BMP280;58242;51.250;-1.118;2022-08-14T05:58:08;99514.81;;;24.66
70668;BMP280;58242;51.250;-1.118;2022-08-14T06:00:36;99511.22;;;24.69
70668;BMP280;58242;51.250;-1.118;2022-08-14T06:03:05;99511.88;;;24.72
70668;BMP280;58242;51.250;-1.118;2022-08-14T06:05:31;99517.63;;;24.78
70668;BMP280;58242;51.250;-1.118;2022-08-14T06:07:57;99517.09;;;24.83
70668;BMP280;58242;51.250;-1.118;2022-08-14T06:10:23;99513.09;;;24.87
70668;BMP280;58242;51.250;-1.118;2022-08-14T06:12:48;99512.56;;;24.92
70668;BMP280;58242;51.250;-1.118;2022-08-14T06:15:14;99508.53;;;24.96
70668;BMP280;58242;51.250;-1.118;2022-08-14T06:20:09;99522.69;;;25.07
70668;BMP280;58242;51.250;-1.118;2022-08-14T06:22:35;99528.06;;;25.10
70668;BMP280;58242;51.250;-1.118;2022-08-14T06:25:00;99522.09;;;25.15
70668;BMP280;58242;51.250;-1.118;2022-08-14T06:27:26;99523.13;;;25.21
70668;BMP280;58242;51.250;-1.118;2022-08-14T06:29:51;99521.41;;;25.27
70668;BMP280;58242;51.250;-1.118;2022-08-14T06:32:16;99525.91;;;25.33
70668;BMP280;58242;51.250;-1.118;2022-08-14T06:34:42;99526.81;;;25.42
70668;BMP280;58242;51.250;-1.118;2022-08-14T06:37:08;99518.88;;;25.48
70668;BMP280;58242;51.250;-1.118;2022-08-14T06:39:33;99517.13;;;25.54
70668;BMP280;58242;51.250;-1.118;2022-08-14T06:41:59;99526.66;;;25.61
70668;BMP280;58242;51.250;-1.118;2022-08-14T06:44:26;99527.56;;;25.71
70668;BMP280;58242;51.250;-1.118;2022-08-14T06:46:51;99527.69;;;25.79
70668;BMP280;58242;51.250;-1.118;2022-08-14T06:49:17;99526.66;;;25.89
70668;BMP280;58242;51.250;-1.118;2022-08-14T06:51:42;99527.97;;;25.97
70668;BMP280;58242;51.250;-1.118;2022-08-14T06:54:11;99523.81;;;26.05
70668;BMP280;58242;51.250;-1.118;2022-08-14T06:56:37;99525.59;;;26.11
70668;BMP280;58242;51.250;-1.118;2022-08-14T06:59:03;99515.50;;;26.20
70668;BMP280;58242;51.250;-1.118;2022-08-14T07:01:29;99513.09;;;26.46
70668;BMP280;58242;51.250;-1.118;2022-08-14T07:04:13;99506.19;;;26.99
70668;BMP280;58242;51.250;-1.118;2022-08-14T07:06:57;99510.78;;;27.68
70668;BMP280;58242;51.250;-1.118;2022-08-14T07:09:22;99506.88;;;28.37
70668;BMP280;58242;51.250;-1.118;2022-08-14T07:11:49;99504.31;;;29.07
70668;BMP280;58242;51.250;-1.118;2022-08-14T07:14:14;99501.09;;;29.79
70668;BMP280;58242;51.250;-1.118;2022-08-14T07:16:39;99502.56;;;30.46
70668;BMP280;58242;51.250;-1.118;2022-08-14T07:19:05;99488.81;;;31.15
70668;BMP280;58242;51.250;-1.118;2022-08-14T07:21:33;99491.41;;;31.83
70668;BMP280;58242;51.250;-1.118;2022-08-14T07:23:58;99496.31;;;32.50
70668;BMP280;58242;51.250;-1.118;2022-08-14T07:26:23;99500.00;;;33.14
70668;BMP280;58242;51.250;-1.118;2022-08-14T07:28:49;99494.41;;;33.72
70668;BMP280;58242;51.250;-1.118;2022-08-14T07:31:14;99495.19;;;34.28
70668;BMP280;58242;51.250;-1.118;2022-08-14T07:33:45;99494.84;;;34.86
70668;BMP280;58242;51.250;-1.118;2022-08-14T07:36:12;99494.59;;;35.41
70668;BMP280;58242;51.250;-1.118;2022-08-14T07:38:38;99486.88;;;35.88
70668;BMP280;58242;51.250;-1.118;2022-08-14T07:41:06;99490.44;;;36.36
70668;BMP280;58242;51.250;-1.118;2022-08-14T07:43:33;99489.63;;;36.79
70668;BMP280;58242;51.250;-1.118;2022-08-14T07:45:59;99486.22;;;37.17
70668;BMP280;58242;51.250;-1.118;2022-08-14T07:48:24;99483.25;;;37.55
70668;BMP280;58242;51.250;-1.118;2022-08-14T07:50:50;99480.94;;;37.98
70668;BMP280;58242;51.250;-1.118;2022-08-14T07:53:16;99477.84;;;38.36
70668;BMP280;58242;51.250;-1.118;2022-08-14T07:55:43;99480.13;;;38.66
70668;BMP280;58242;51.250;-1.118;2022-08-14T07:58:10;99463.72;;;38.98
70668;BMP280;58242;51.250;-1.118;2022-08-14T08:00:36;99470.00;;;39.27
70668;BMP280;58242;51.250;-1.118;2022-08-14T08:03:05;99474.22;;;39.52
70668;BMP280;58242;51.250;-1.118;2022-08-14T08:05:34;99467.34;;;39.71
70668;BMP280;58242;51.250;-1.118;2022-08-14T08:08:02;99467.13;;;39.99
70668;BMP280;58242;51.250;-1.118;2022-08-14T08:10:27;99456.25;;;40.27
70668;BMP280;58242;51.250;-1.118;2022-08-14T08:13:10;99459.31;;;40.54
70668;BMP280;58242;51.250;-1.118;2022-08-14T08:15:39;99452.47;;;40.67
70668;BMP280;58242;51.250;-1.118;2022-08-14T08:18:07;99451.38;;;40.83
70668;BMP280;58242;51.250;-1.118;2022-08-14T08:20:35;99437.81;;;40.99
70668;BMP280;58242;51.250;-1.118;2022-08-14T08:23:02;99436.72;;;41.15
70668;BMP280;58242;51.250;-1.118;2022-08-14T08:25:30;99431.38;;;41.24
70668;BMP280;58242;51.250;-1.118;2022-08-14T08:28:14;99436.91;;;41.30
70668;BMP280;58242;51.250;-1.118;2022-08-14T08:30:42;99435.50;;;41.68
70668;BMP280;58242;51.250;-1.118;2022-08-14T08:33:11;99429.97;;;41.96
70668;BMP280;58242;51.250;-1.118;2022-08-14T08:35:37;99424.03;;;42.19
70668;BMP280;58242;51.250;-1.118;2022-08-14T08:38:11;99416.34;;;42.39
70668;BMP280;58242;51.250;-1.118;2022-08-14T08:40:40;99417.28;;;42.62
70668;BMP280;58242;51.250;-1.118;2022-08-14T08:45:41;99414.13;;;43.00
70668;BMP280;58242;51.250;-1.118;2022-08-14T08:48:06;99411.31;;;43.34
70668;BMP280;58242;51.250;-1.118;2022-08-14T08:50:34;99409.50;;;43.66
70668;BMP280;58242;51.250;-1.118;2022-08-14T08:53:03;99418.03;;;43.95
70668;BMP280;58242;51.250;-1.118;2022-08-14T08:55:35;99411.06;;;44.18
70668;BMP280;58242;51.250;-1.118;2022-08-14T08:58:05;99412.19;;;44.29
70668;BMP280;58242;51.250;-1.118;2022-08-14T09:00:32;99409.22;;;44.42
70668;BMP280;58242;51.250;-1.118;2022-08-14T09:03:03;99427.81;;;44.52
70668;BMP280;58242;51.250;-1.118;2022-08-14T09:05:29;99418.59;;;44.74
70668;BMP280;58242;51.250;-1.118;2022-08-14T09:08:15;99425.44;;;45.02
70668;BMP280;58242;51.250;-1.118;2022-08-14T09:10:41;99422.59;;;45.16
70668;BMP280;58242;51.250;-1.118;2022-08-14T09:13:06;99422.59;;;45.16
70668;BMP280;58242;51.250;-1.118;2022-08-14T09:15:32;99423.34;;;45.17
70668;BMP280;58242;51.250;-1.118;2022-08-14T09:17:58;99416.78;;;45.14
70668;BMP280;58242;51.250;-1.118;2022-08-14T09:20:24;99411.91;;;45.15
70668;BMP280;58242;51.250;-1.118;2022-08-14T09:22:49;99412.72;;;45.32
70668;BMP280;58242;51.250;-1.118;2022-08-14T09:25:16;99402.69;;;45.53
70668;BMP280;58242;51.250;-1.118;2022-08-14T09:27:41;99398.75;;;45.72
70668;BMP280;58242;51.250;-1.118;2022-08-14T09:30:07;99396.59;;;45.87
70668;BMP280;58242;51.250;-1.118;2022-08-14T09:33:06;99392.66;;;46.14
70668;BMP280;58242;51.250;-1.118;2022-08-14T09:38:53;99397.84;;;46.98
70668;BMP280;58242;51.250;-1.118;2022-08-14T09:44:06;99391.63;;;47.42
70668;BMP280;58242;51.250;-1.118;2022-08-14T09:46:34;99392.47;;;47.52
70668;BMP280;58242;51.250;-1.118;2022-08-14T09:49:04;99396.25;;;47.63
70668;BMP280;58242;51.250;-1.118;2022-08-14T09:51:31;99397.47;;;47.70
70668;BMP280;58242;51.250;-1.118;2022-08-14T09:54:05;99386.88;;;47.70
70668;BMP280;58242;51.250;-1.118;2022-08-14T09:56:48;99390.38;;;47.78
70668;BMP280;58242;51.250;-1.118;2022-08-14T09:59:16;99385.66;;;47.90
70668;BMP280;58242;51.250;-1.118;2022-08-14T10:01:47;99385.66;;;47.99
70668;BMP280;58242;51.250;-1.118;2022-08-14T10:04:18;99388.91;;;48.12
70668;BMP280;58242;51.250;-1.118;2022-08-14T10:06:45;99377.88;;;48.25
70668;BMP280;58242;51.250;-1.118;2022-08-14T10:09:11;99385.34;;;48.30
70668;BMP280;58242;51.250;-1.118;2022-08-14T10:11:38;99378.69;;;48.44
70668;BMP280;58242;51.250;-1.118;2022-08-14T10:16:44;99381.50;;;48.44
70668;BMP280;58242;51.250;-1.118;2022-08-14T10:19:12;99369.84;;;48.31
70668;BMP280;58242;51.250;-1.118;2022-08-14T10:21:38;99375.25;;;48.01
70668;BMP280;58242;51.250;-1.118;2022-08-14T10:24:04;99370.78;;;48.08
70668;BMP280;58242;51.250;-1.118;2022-08-14T10:26:34;99362.03;;;48.13
70668;BMP280;58242;51.250;-1.118;2022-08-14T10:29:07;99360.91;;;47.99
70668;BMP280;58242;51.250;-1.118;2022-08-14T10:31:34;99354.53;;;47.73
70668;BMP280;58242;51.250;-1.118;2022-08-14T10:36:36;99360.22;;;46.72
70668;BMP280;58242;51.250;-1.118;2022-08-14T10:39:05;99358.38;;;46.10
70668;BMP280;58242;51.250;-1.118;2022-08-14T10:41:42;99353.63;;;45.65
70668;BMP280;58242;51.250;-1.118;2022-08-14T10:49:22;99347.88;;;46.03
70668;BMP280;58242;51.250;-1.118;2022-08-14T10:52:19;99353.72;;;46.46
70668;BMP280;58242;51.250;-1.118;2022-08-14T10:54:46;99343.19;;;46.63
70668;BMP280;58242;51.250;-1.118;2022-08-14T10:57:26;99343.78;;;46.78
70668;BMP280;58242;51.250;-1.118;2022-08-14T11:00:00;99326.56;;;47.09
70668;BMP280;58242;51.250;-1.118;2022-08-14T11:02:34;99328.84;;;47.62
70668;BMP280;58242;51.250;-1.118;2022-08-14T11:05:04;99327.06;;;48.01
70668;BMP280;58242;51.250;-1.118;2022-08-14T11:07:33;99320.13;;;48.30
70668;BMP280;58242;51.250;-1.118;2022-08-14T11:10:03;99317.34;;;48.58
70668;BMP280;58242;51.250;-1.118;2022-08-14T11:12:48;99313.47;;;48.81
70668;BMP280;58242;51.250;-1.118;2022-08-14T11:15:18;99307.31;;;48.94
70668;BMP280;58242;51.250;-1.118;2022-08-14T11:17:45;99305.84;;;48.93
70668;BMP280;58242;51.250;-1.118;2022-08-14T11:20:12;99297.44;;;48.95
70668;BMP280;58242;51.250;-1.118;2022-08-14T11:22:39;99288.06;;;48.92
70668;BMP280;58242;51.250;-1.118;2022-08-14T11:25:07;99291.94;;;48.97
70668;BMP280;58242;51.250;-1.118;2022-08-14T11:27:33;99290.41;;;49.14
70668;BMP280;58242;51.250;-1.118;2022-08-14T11:30:06;99280.94;;;49.69
70668;BMP280;58242;51.250;-1.118;2022-08-14T11:32:32;99289.44;;;50.28
70668;BMP280;58242;51.250;-1.118;2022-08-14T11:34:59;99280.94;;;50.80
70668;BMP280;58242;51.250;-1.118;2022-08-14T11:37:25;99279.00;;;51.37
70668;BMP280;58242;51.250;-1.118;2022-08-14T11:39:52;99291.94;;;51.93
70668;BMP280;58242;51.250;-1.118;2022-08-14T11:42:22;99288.66;;;52.21
70668;BMP280;58242;51.250;-1.118;2022-08-14T11:44:48;99273.66;;;52.32
70668;BMP280;58242;51.250;-1.118;2022-08-14T11:47:14;99281.69;;;52.35
70668;BMP280;58242;51.250;-1.118;2022-08-14T11:49:44;99277.88;;;52.31
70668;BMP280;58242;51.250;-1.118;2022-08-14T11:52:11;99275.00;;;52.31
70668;BMP280;58242;51.250;-1.118;2022-08-14T11:54:37;99273.88;;;52.36
70668;BMP280;58242;51.250;-1.118;2022-08-14T11:57:03;99269.59;;;52.48
70668;BMP280;58242;51.250;-1.118;2022-08-14T11:59:30;99274.34;;;52.55
70668;BMP280;58242;51.250;-1.118;2022-08-14T12:02:08;99271.47;;;51.97
70668;BMP280;58242;51.250;-1.118;2022-08-14T12:04:33;99274.63;;;51.13
70668;BMP280;58242;51.250;-1.118;2022-08-14T12:06:59;99273.59;;;50.25
70668;BMP280;58242;51.250;-1.118;2022-08-14T12:09:33;99267.75;;;49.34
70668;BMP280;58242;51.250;-1.118;2022-08-14T12:12:00;99262.19;;;49.46
70668;BMP280;58242;51.250;-1.118;2022-08-14T12:14:26;99267.44;;;50.08
70668;BMP280;58242;51.250;-1.118;2022-08-14T12:17:06;99261.59;;;50.68
70668;BMP280;58242;51.250;-1.118;2022-08-14T12:22:16;99245.44;;;51.46
70668;BMP280;58242;51.250;-1.118;2022-08-14T12:24:42;99250.47;;;51.14
70668;BMP280;58242;51.250;-1.118;2022-08-14T12:27:10;99238.44;;;51.16
70668;BMP280;58242;51.250;-1.118;2022-08-14T12:29:38;99246.47;;;51.08
70668;BMP280;58242;51.250;-1.118;2022-08-14T12:32:14;99241.97;;;50.94
70668;BMP280;58242;51.250;-1.118;2022-08-14T12:34:41;99236.75;;;50.79
70668;BMP280;58242;51.250;-1.118;2022-08-14T12:37:07;99232.91;;;50.75
70668;BMP280;58242;51.250;-1.118;2022-08-14T12:39:34;99236.66;;;50.88
70668;BMP280;58242;51.250;-1.118;2022-08-14T12:42:01;99225.56;;;51.04
70668;BMP280;58242;51.250;-1.118;2022-08-14T12:44:38;99219.13;;;51.03
70668;BMP280;58242;51.250;-1.118;2022-08-14T12:47:09;99216.03;;;50.99
70668;BMP280;58242;51.250;-1.118;2022-08-14T12:49:47;99211.69;;;51.09
70668;BMP280;58242;51.250;-1.118;2022-08-14T12:52:13;99216.03;;;50.99
70668;BMP280;58242;51.250;-1.118;2022-08-14T12:54:39;99208.00;;;51.07
70668;BMP280;58242;51.250;-1.118;2022-08-14T12:57:11;99204.94;;;51.37
70668;BMP280;58242;51.250;-1.118;2022-08-14T12:59:40;99195.50;;;51.57
70668;BMP280;58242;51.250;-1.118;2022-08-14T13:02:06;99203.41;;;51.58
70668;BMP280;58242;51.250;-1.118;2022-08-14T13:04:32;99198.84;;;51.31
70668;BMP280;58242;51.250;-1.118;2022-08-14T13:07:02;99195.22;;;51.08
70668;BMP280;58242;51.250;-1.118;2022-08-14T13:09:31;99200.09;;;50.85
70668;BMP280;58242;51.250;-1.118;2022-08-14T13:12:01;99198.03;;;50.54
70668;BMP280;58242;51.250;-1.118;2022-08-14T13:14:29;99189.00;;;50.46
70668;BMP280;58242;51.250;-1.118;2022-08-14T13:16:58;99186.16;;;50.46
70668;BMP280;58242;51.250;-1.118;2022-08-14T13:19:24;99187.59;;;50.36
70668;BMP280;58242;51.250;-1.118;2022-08-14T13:21:52;99192.00;;;50.07
70668;BMP280;58242;51.250;-1.118;2022-08-14T13:24:20;99184.19;;;49.87
70668;BMP280;58242;51.250;-1.118;2022-08-14T13:26:50;99183.72;;;49.70
70668;BMP280;58242;51.250;-1.118;2022-08-14T13:29:18;99180.84;;;49.50
70668;BMP280;58242;51.250;-1.118;2022-08-14T13:31:48;99166.25;;;49.44
70668;BMP280;58242;51.250;-1.118;2022-08-14T13:34:18;99165.88;;;49.49
70668;BMP280;58242;51.250;-1.118;2022-08-14T13:36:44;99170.56;;;49.45
70668;BMP280;58242;51.250;-1.118;2022-08-14T13:39:13;99162.81;;;49.36
70668;BMP280;58242;51.250;-1.118;2022-08-14T13:41:39;99149.19;;;49.14
70668;BMP280;58242;51.250;-1.118;2022-08-14T13:44:04;99150.59;;;48.95
70668;BMP280;58242;51.250;-1.118;2022-08-14T13:46:30;99155.00;;;48.68
70668;BMP280;58242;51.250;-1.118;2022-08-14T13:48:56;99146.66;;;48.33
70668;BMP280;58242;51.250;-1.118;2022-08-14T13:51:22;99149.81;;;47.91
70668;BMP280;58242;51.250;-1.118;2022-08-14T13:53:50;99155.66;;;47.30
70668;BMP280;58242;51.250;-1.118;2022-08-14T13:56:16;99148.59;;;46.87
70668;BMP280;58242;51.250;-1.118;2022-08-14T13:58:44;99151.94;;;46.34
70668;BMP280;58242;51.250;-1.118;2022-08-14T14:01:15;99154.72;;;45.75
70668;BMP280;58242;51.250;-1.118;2022-08-14T14:03:43;99147.22;;;45.30
70668;BMP280;58242;51.250;-1.118;2022-08-14T14:06:12;99150.53;;;44.88
70668;BMP280;58242;51.250;-1.118;2022-08-14T14:08:44;99148.66;;;44.52
70668;BMP280;58242;51.250;-1.118;2022-08-14T14:11:12;99145.22;;;44.23
70668;BMP280;58242;51.250;-1.118;2022-08-14T14:13:38;99142.91;;;43.97
70668;BMP280;58242;51.250;-1.118;2022-08-14T14:16:05;99134.88;;;43.79
70668;BMP280;58242;51.250;-1.118;2022-08-14T14:18:33;99128.69;;;43.66
70668;BMP280;58242;51.250;-1.118;2022-08-14T14:21:00;99124.94;;;43.57
70668;BMP280;58242;51.250;-1.118;2022-08-14T14:23:27;99129.09;;;43.48
70668;BMP280;58242;51.250;-1.118;2022-08-14T14:25:53;99130.41;;;43.33
70668;BMP280;58242;51.250;-1.118;2022-08-14T14:28:19;99132.47;;;43.10